EGSSEGFF

Guest
Details From EGSS - London Stansted
To EGFF - Cardiff
Flight Number -
Tags decoded
Created
Modified
Stats Distance 139 nm / 257 km
Max Altitude 0 ft / 0 m
Waypoints 3
Social Downloads 2
Likes 0
Share VATSIM

Download

Looking for another format? Having issues loading an existing format? Contact us
Advertisement - Login to hide

Notes

Requested: EGSS CPT CDF1C EGFF Unmatched points: CDF1C

Route

EGSS CPT EGFF

ID Type Via Altitude Latitude Longitude Leg Dist Tot Dist Heading (true) Name
O EGSS APT - 0 ft / 0 m 51.88510˚ 0.23496˚ - 0 nm - London Stansted
CPT VOR - 0 ft / 0 m 51.49167˚ -1.21972˚ 59 nm 59 nm 247° / 246° COMPTON VOR-DME
O EGFF APT - 0 ft / 0 m 51.39656˚ -3.34320˚ 79 nm 138 nm 267° / 265° Cardiff

Altitude Profile

Advertisement - Login to hide

EGSS

Details ICAO EGSS (STN)
Name London Stansted
Region United Kingdom
Timezone Europe/London (UTC+0.0)
Stats Elevation 348 ft / 106 m (AMSL)
Location 51.885097° 0.234962°
Runways 1
Magnetic Variation 0.364° W

METAR

EGSS 110720Z AUTO 03014KT 8000 -RA BKN007 BKN012 02/01 Q0980

Decode

TAF

TAF EGSS 110504Z 1106/1212 03014KT 9999 FEW002 TEMPO 1106/1114 5000 BR BKN002 PROB30 TEMPO 1106/1108 0300 FG FZFG BKN001 PROB30 TEMPO 1108/1112 02015G25KT 0800 SN BKN001 BECMG 1112/1115 33012KT BECMG 1200/1203 27008KT PROB30 1206/1212 2000 BR BKN002

Decode

Departure Runways

ID Width Length Bearing (true) Bearing (mag) Surface Threshold Offset Overrun Length
04 151 ft / 46 m 10,011 ft / 3,052 m 42.79° 43.15° Asphalt 994 ft / 303 m 0 ft / 0 m
22 151 ft / 46 m 10,011 ft / 3,052 m 222.81° 223.17° Asphalt 0 ft / 0 m 0 ft / 0 m

EGFF

Details ICAO EGFF (CWL)
Name Cardiff
Region United Kingdom
Timezone Europe/London (UTC+0.0)
Stats Elevation 220 ft / 67 m (AMSL)
Location 51.396565° -3.343202°
Runways 1
Magnetic Variation 1.580° W

METAR

EGFF 110720Z AUTO 04017KT 9999 OVC016 02/00 Q0982

Decode

TAF

TAF EGFF 110454Z 1106/1206 03020G30KT 9999 BKN012 BECMG 1106/1109 FEW018 BECMG 1113/1116 33008KT TEMPO 1116/1206 8000 PROB30 TEMPO 1200/1206 3000 BR

Decode

Destination Runways

ID Width Length Bearing (true) Bearing (mag) Surface Threshold Offset Overrun Length
12 131 ft / 40 m 7,831 ft / 2,387 m 116.82° 118.40° Asphalt 715 ft / 218 m 0 ft / 0 m
30 131 ft / 40 m 7,831 ft / 2,387 m 296.84° 298.42° Asphalt 594 ft / 181 m 0 ft / 0 m

Approach Navaids

Runway Type Ident Frequency Range Bearing (true) Bearing (mag) Slope Elevation
12 Localiser ICDF 110.70 MHz 18 nm / 33 km 116.85° 118.43° - 220 ft / 67 m (AMSL)
12 Glidescope ICDF 110.70 MHz 10 nm / 19 km 116.83° 118.41° 3.00° 220 ft / 67 m (AMSL)
12 DME ICDF 110.70 MHz 18 nm / 33 km - - - 281 ft / 86 m (AMSL)
30 Localiser ICWA 110.70 MHz 18 nm / 33 km 296.82° 298.40° - 220 ft / 67 m (AMSL)
30 Glidescope ICWA 110.70 MHz 10 nm / 19 km 296.83° 298.41° 3.00° 220 ft / 67 m (AMSL)
30 DME ICWA 110.70 MHz 18 nm / 33 km - - - 220 ft / 67 m (AMSL)

Popular Alternatives